Time;durP1;ratioP1;P1;durP2;ratioP2;P2;SDS_P1;SDS_P2;PMS_P1;PMS_P2;Temp;Humidity;BMP_temperature;BMP_pressure;BME280_temperature;BME280_humidity;BME280_pressure;Samples;Min_cycle;Max_cycle;Signal;HPM_P1;HPM_P2
2020/12/18 00:01:51;;;;;;;9.47;4.90;;;7.20;99.90;;;;;;5004279;28;20197;-89
2020/12/18 00:04:16;;;;;;;11.80;5.07;;;7.20;99.90;;;;;;5007072;28;20992;-87
2020/12/18 00:06:42;;;;;;;6.80;4.70;;;7.10;99.90;;;;;;5015422;28;20440;-89
2020/12/18 00:09:11;;;;;;;8.27;5.13;;;7.10;99.90;;;;;;4978201;28;20448;-88
2020/12/18 00:11:37;;;;;;;9.60;5.63;;;7.20;99.90;;;;;;5009717;28;20483;-88
2020/12/18 00:14:05;;;;;;;8.03;4.80;;;7.20;99.90;;;;;;5006524;28;20493;-88
2020/12/18 00:16:33;;;;;;;8.90;5.30;;;7.20;99.90;;;;;;5014664;28;20887;-88
2020/12/18 00:18:59;;;;;;;8.80;5.35;;;7.20;99.90;;;;;;4998009;28;20539;-88
2020/12/18 00:21:25;;;;;;;7.45;4.40;;;7.20;99.90;;;;;;5008541;28;20200;-86
2020/12/18 00:23:51;;;;;;;8.80;5.10;;;7.20;99.90;;;;;;5014503;28;20264;-87
2020/12/18 00:26:22;;;;;;;8.55;5.32;;;7.20;99.90;;;;;;5013957;28;20440;-87
2020/12/18 00:28:48;;;;;;;9.67;5.23;;;7.10;99.90;;;;;;5014507;28;20229;-87
2020/12/18 00:31:15;;;;;;;10.60;6.47;;;7.10;99.90;;;;;;5014558;28;20502;-88
2020/12/18 00:33:41;;;;;;;10.85;5.10;;;7.20;99.90;;;;;;5014857;28;20429;-88
2020/12/18 00:36:10;;;;;;;10.80;5.37;;;7.10;99.90;;;;;;5014225;28;20189;-88
2020/12/18 00:38:36;;;;;;;10.02;5.45;;;7.10;99.90;;;;;;4978141;28;20461;-88
2020/12/18 00:41:03;;;;;;;6.65;5.03;;;7.10;99.90;;;;;;5013488;28;20219;-88
2020/12/18 00:43:28;;;;;;;6.70;5.75;;;7.20;99.90;;;;;;4996538;28;20190;-88
2020/12/18 00:45:54;;;;;;;11.13;5.63;;;7.20;99.90;;;;;;4997856;28;20190;-88
2020/12/18 00:48:23;;;;;;;9.50;6.30;;;7.10;99.90;;;;;;5003889;28;20592;-86
2020/12/18 00:50:51;;;;;;;8.95;4.97;;;7.10;99.90;;;;;;4997685;28;20247;-88
2020/12/18 00:53:19;;;;;;;11.15;5.20;;;7.00;99.90;;;;;;5008737;28;20201;-88
2020/12/18 00:55:45;;;;;;;9.90;6.00;;;7.00;99.90;;;;;;4994220;28;20543;-88
2020/12/18 00:58:17;;;;;;;9.55;4.95;;;7.00;99.90;;;;;;4981732;28;20468;-88
2020/12/18 01:00:43;;;;;;;9.50;5.10;;;7.00;99.90;;;;;;4995142;28;20277;-88
2020/12/18 01:03:17;;;;;;;9.75;5.30;;;7.00;99.90;;;;;;4997202;28;20204;-87
2020/12/18 01:05:44;;;;;;;9.82;5.18;;;7.00;99.90;;;;;;5006864;28;20245;-87
2020/12/18 01:08:39;;;;;;;8.90;5.10;;;7.00;99.90;;;;;;5000951;28;20212;-88
2020/12/18 01:11:06;;;;;;;9.95;5.50;;;7.00;99.90;;;;;;5013592;28;20190;-85
2020/12/18 01:13:35;;;;;;;11.88;5.90;;;6.90;99.90;;;;;;4989439;28;20625;-88
2020/12/18 01:16:11;;;;;;;8.93;5.25;;;6.90;99.90;;;;;;5014425;28;20267;-87
2020/12/18 01:18:40;;;;;;;16.00;6.38;;;6.90;99.90;;;;;;4997470;28;20201;-88
2020/12/18 01:21:09;;;;;;;8.52;5.72;;;6.80;99.90;;;;;;4997070;28;20213;-88
2020/12/18 01:23:45;;;;;;;7.88;6.43;;;6.80;99.90;;;;;;4990477;28;20190;-88
2020/12/18 01:26:18;;;;;;;7.28;5.38;;;6.90;99.90;;;;;;4978951;28;20187;-87
2020/12/18 01:28:46;;;;;;;7.82;5.05;;;6.90;99.90;;;;;;4993238;28;20241;-87
2020/12/18 01:31:12;;;;;;;8.35;5.38;;;6.90;99.90;;;;;;4993539;28;20190;-88
2020/12/18 01:33:39;;;;;;;6.88;5.05;;;6.90;99.90;;;;;;4993967;28;20182;-87
2020/12/18 01:36:14;;;;;;;6.90;4.72;;;6.90;99.90;;;;;;4993766;28;20205;-87
2020/12/18 01:38:42;;;;;;;9.95;4.78;;;6.90;99.90;;;;;;4994035;28;20261;-88
2020/12/18 01:41:11;;;;;;;12.35;5.53;;;6.90;99.90;;;;;;5004102;28;20225;-88
2020/12/18 01:43:37;;;;;;;6.90;4.53;;;6.90;99.90;;;;;;4994472;28;20206;-88
2020/12/18 01:46:09;;;;;;;13.32;5.18;;;6.90;99.90;;;;;;4978687;28;20198;-88
2020/12/18 01:48:39;;;;;;;8.52;4.93;;;6.80;99.90;;;;;;5000878;28;20218;-88
2020/12/18 01:51:10;;;;;;;6.43;4.45;;;6.80;99.90;;;;;;4991074;28;20528;-89
2020/12/18 01:53:40;;;;;;;8.30;4.90;;;6.80;99.90;;;;;;4989642;28;20195;-88
2020/12/18 01:56:33;;;;;;;10.38;6.50;;;6.90;99.90;;;;;;4995595;28;20199;-88
2020/12/18 01:59:15;;;;;;;10.68;5.70;;;6.70;99.90;;;;;;4997344;28;20194;-88
2020/12/18 02:01:58;;;;;;;11.57;7.28;;;6.80;99.90;;;;;;4997090;28;20214;-88
2020/12/18 02:04:36;;;;;;;12.20;5.93;;;6.70;99.90;;;;;;4988967;28;20265;-88
2020/12/18 02:07:09;;;;;;;9.25;5.40;;;6.70;99.90;;;;;;5006006;28;20363;-88
2020/12/18 02:09:45;;;;;;;7.70;4.93;;;6.70;99.90;;;;;;4998761;28;20190;-88
2020/12/18 02:12:13;;;;;;;8.30;5.13;;;6.70;99.90;;;;;;4997663;28;20202;-86
2020/12/18 02:14:48;;;;;;;12.65;5.97;;;6.70;99.90;;;;;;5013057;28;20200;-88
2020/12/18 02:17:15;;;;;;;4.88;4.43;;;6.70;99.90;;;;;;4997416;28;20273;-88
2020/12/18 02:19:54;;;;;;;7.38;5.10;;;6.80;99.90;;;;;;4997058;28;20198;-88
2020/12/18 02:22:24;;;;;;;11.60;5.90;;;6.80;99.90;;;;;;4988036;28;20190;-87
2020/12/18 02:25:24;;;;;;;10.85;5.10;;;6.80;99.90;;;;;;4995371;28;20225;-88
2020/12/18 02:27:50;;;;;;;8.85;5.45;;;6.80;99.90;;;;;;5003513;28;20215;-87
2020/12/18 02:30:22;;;;;;;11.30;5.28;;;6.80;99.90;;;;;;4978139;28;20238;-89
2020/12/18 02:33:11;;;;;;;7.90;5.13;;;6.80;99.90;;;;;;4970017;28;20278;-88
2020/12/18 02:35:49;;;;;;;11.52;5.07;;;6.80;99.90;;;;;;4980086;28;20190;-88
2020/12/18 02:38:15;;;;;;;10.33;5.77;;;6.80;99.90;;;;;;4971720;28;20595;-88
2020/12/18 02:40:47;;;;;;;8.57;5.57;;;6.80;99.90;;;;;;4980287;28;20433;-87
2020/12/18 02:43:32;;;;;;;12.35;5.45;;;6.80;99.90;;;;;;4994582;28;20278;-88
2020/12/18 02:45:59;;;;;;;9.88;5.10;;;6.80;99.90;;;;;;4996030;28;20273;-88
2020/12/18 02:48:35;;;;;;;8.20;5.25;;;6.80;99.90;;;;;;4979559;28;20234;-88
2020/12/18 02:51:14;;;;;;;12.13;5.18;;;6.80;99.90;;;;;;4987641;28;20207;-87
2020/12/18 02:53:48;;;;;;;7.72;4.63;;;6.80;99.90;;;;;;4995752;28;20186;-87
2020/12/18 02:56:33;;;;;;;8.75;4.35;;;6.80;99.90;;;;;;4996297;28;20286;-88
2020/12/18 02:59:15;;;;;;;10.82;5.18;;;6.80;99.90;;;;;;4979409;28;20190;-88
2020/12/18 03:01:46;;;;;;;6.72;4.47;;;6.80;99.90;;;;;;4979367;28;20252;-88
2020/12/18 03:04:15;;;;;;;9.43;4.72;;;6.90;99.90;;;;;;4972235;28;20229;-86
2020/12/18 03:07:15;;;;;;;5.70;3.90;;;6.80;99.90;;;;;;4980767;28;20277;-88
2020/12/18 03:09:44;;;;;;;8.18;4.53;;;6.80;99.90;;;;;;4996537;28;20229;-88
2020/12/18 03:12:10;;;;;;;7.13;4.57;;;6.90;99.90;;;;;;4968038;28;20219;-88
2020/12/18 03:14:36;;;;;;;12.57;4.87;;;6.80;99.90;;;;;;4977932;28;20210;-88
2020/12/18 03:17:22;;;;;;;8.57;4.65;;;6.80;99.90;;;;;;4979336;28;20438;-88
2020/12/18 03:19:58;;;;;;;9.70;4.00;;;6.80;99.90;;;;;;4979386;28;20182;-88
2020/12/18 03:22:36;;;;;;;7.88;4.15;;;6.80;99.90;;;;;;4979314;28;20515;-87
2020/12/18 03:25:17;;;;;;;10.18;3.95;;;6.90;99.90;;;;;;4963173;28;20534;-88
2020/12/18 03:27:51;;;;;;;8.23;4.60;;;6.80;99.90;;;;;;4987487;28;20273;-88
2020/12/18 03:30:17;;;;;;;10.55;4.10;;;6.80;99.90;;;;;;5008776;28;20223;-88
2020/12/18 03:32:49;;;;;;;6.03;4.38;;;6.80;99.90;;;;;;4995226;28;21555;-89
2020/12/18 03:35:21;;;;;;;8.68;4.28;;;6.80;99.90;;;;;;4996113;28;20658;-88
2020/12/18 03:37:48;;;;;;;5.88;4.13;;;6.80;99.90;;;;;;5011417;28;20285;-86
2020/12/18 03:40:20;;;;;;;7.00;4.40;;;6.80;99.90;;;;;;4976059;28;20244;-88
2020/12/18 03:42:55;;;;;;;7.38;3.97;;;6.80;99.90;;;;;;4979502;28;20186;-88
2020/12/18 03:45:25;;;;;;;9.20;4.60;;;6.70;99.90;;;;;;4995220;28;20183;-88
2020/12/18 03:48:10;;;;;;;11.63;4.43;;;6.80;99.90;;;;;;4995320;28;20635;-88
2020/12/18 03:50:50;;;;;;;7.28;4.88;;;6.80;99.90;;;;;;4994104;28;20723;-87
2020/12/18 03:53:24;;;;;;;5.35;3.85;;;6.80;99.90;;;;;;4973385;28;20285;-88
2020/12/18 03:56:16;;;;;;;5.25;4.65;;;6.90;99.90;;;;;;4972339;28;20198;-88
2020/12/18 03:59:03;;;;;;;6.60;4.97;;;6.90;99.90;;;;;;5003820;28;20222;-87
2020/12/18 04:01:54;;;;;;;6.28;4.40;;;6.90;99.90;;;;;;5003300;28;20631;-86
2020/12/18 04:04:22;;;;;;;5.25;3.63;;;6.90;99.90;;;;;;4978657;28;20255;-88
2020/12/18 04:06:51;;;;;;;10.05;4.05;;;6.90;99.90;;;;;;4995413;28;20225;-87
2020/12/18 04:09:18;;;;;;;10.63;4.40;;;6.90;99.90;;;;;;5011353;28;20249;-88
2020/12/18 04:11:52;;;;;;;5.35;3.90;;;7.00;99.90;;;;;;4986113;28;20197;-88
2020/12/18 04:14:29;;;;;;;6.50;3.90;;;7.00;99.90;;;;;;4995100;28;20226;-88
2020/12/18 04:17:04;;;;;;;9.00;4.10;;;6.90;99.90;;;;;;4966167;28;20197;-88
2020/12/18 04:19:31;;;;;;;5.03;4.53;;;6.90;99.90;;;;;;4992448;28;20639;-88
2020/12/18 04:21:58;;;;;;;9.05;4.60;;;6.90;99.90;;;;;;5010571;28;20214;-87
2020/12/18 04:24:44;;;;;;;5.40;3.65;;;6.80;99.90;;;;;;4995269;28;20190;-88
2020/12/18 04:27:14;;;;;;;5.70;4.57;;;6.80;99.90;;;;;;4959070;28;20199;-88
2020/12/18 04:29:40;;;;;;;5.60;4.25;;;6.80;99.90;;;;;;5011327;28;20703;-88
2020/12/18 04:32:07;;;;;;;10.25;4.43;;;6.80;99.90;;;;;;5010721;28;20183;-87
2020/12/18 04:34:35;;;;;;;9.10;4.47;;;6.80;99.90;;;;;;4994383;28;20240;-86
2020/12/18 04:37:19;;;;;;;6.15;4.07;;;6.80;99.90;;;;;;4986517;28;20193;-88
2020/12/18 04:40:11;;;;;;;9.98;4.78;;;6.80;99.90;;;;;;5010541;28;20194;-89
2020/12/18 04:42:54;;;;;;;9.32;4.72;;;6.80;99.90;;;;;;4994635;28;20202;-87
2020/12/18 04:45:20;;;;;;;7.63;5.07;;;6.70;99.90;;;;;;4994424;28;20259;-89
2020/12/18 04:47:56;;;;;;;11.85;4.55;;;6.80;99.90;;;;;;4986486;28;20285;-89
2020/12/18 04:50:27;;;;;;;7.63;4.63;;;6.80;99.90;;;;;;5014194;28;20179;-89
2020/12/18 04:53:12;;;;;;;10.02;4.22;;;6.80;99.90;;;;;;4994640;28;20178;-88
2020/12/18 04:55:56;;;;;;;8.52;4.55;;;6.90;99.90;;;;;;4994668;28;20183;-88
2020/12/18 04:58:31;;;;;;;6.50;4.05;;;6.80;99.90;;;;;;4972987;28;20265;-89
2020/12/18 05:00:59;;;;;;;4.97;4.18;;;6.80;99.90;;;;;;5009509;28;20202;-87
2020/12/18 05:03:51;;;;;;;7.13;3.88;;;6.80;99.90;;;;;;4977718;28;20194;-89
2020/12/18 05:06:21;;;;;;;13.20;3.75;;;6.80;99.90;;;;;;4994629;28;20313;-85
2020/12/18 05:08:52;;;;;;;5.55;3.80;;;6.90;99.90;;;;;;4993951;28;20206;-89
2020/12/18 05:11:25;;;;;;;8.77;3.67;;;6.80;99.90;;;;;;4994152;28;20183;-89
2020/12/18 05:13:58;;;;;;;8.15;3.97;;;6.90;99.90;;;;;;5010265;28;20615;-89
2020/12/18 05:16:29;;;;;;;7.32;4.20;;;6.80;99.90;;;;;;4994343;28;20191;-88
2020/12/18 05:19:18;;;;;;;7.03;3.53;;;6.90;99.90;;;;;;4991631;28;20190;-89
2020/12/18 05:22:05;;;;;;;6.35;4.00;;;6.80;99.90;;;;;;4996603;28;20205;-89
2020/12/18 05:24:55;;;;;;;7.72;4.20;;;6.80;99.90;;;;;;4997910;28;20214;-89
2020/12/18 05:27:22;;;;;;;7.82;3.67;;;6.80;99.90;;;;;;4997498;28;20194;-88
2020/12/18 05:29:52;;;;;;;9.02;4.13;;;6.80;99.90;;;;;;4997322;28;20262;-87
2020/12/18 05:32:39;;;;;;;9.23;4.70;;;6.80;99.90;;;;;;4998492;28;20214;-87
2020/12/18 05:35:17;;;;;;;6.32;3.58;;;6.80;99.90;;;;;;4981854;28;20519;-87
2020/12/18 05:37:59;;;;;;;6.20;4.32;;;6.80;99.90;;;;;;4988961;28;20219;-87
2020/12/18 05:40:48;;;;;;;13.02;5.10;;;6.80;99.90;;;;;;4997967;28;20236;-87
2020/12/18 05:43:35;;;;;;;6.18;3.35;;;6.80;99.90;;;;;;4997635;28;20532;-85
2020/12/18 05:46:20;;;;;;;6.75;2.97;;;6.90;99.90;;;;;;4982892;28;20198;-87
2020/12/18 05:49:09;;;;;;;4.78;3.70;;;6.90;99.90;;;;;;4988769;28;20296;-88
2020/12/18 05:51:43;;;;;;;6.60;3.63;;;6.90;99.90;;;;;;4992478;28;20623;-87
2020/12/18 05:54:17;;;;;;;11.98;3.78;;;6.90;99.90;;;;;;4988756;28;20551;-85
2020/12/18 05:56:51;;;;;;;8.07;3.92;;;6.90;99.90;;;;;;4997108;28;20206;-86
2020/12/18 05:59:19;;;;;;;7.40;3.97;;;6.90;99.90;;;;;;5012819;28;20202;-87
2020/12/18 06:01:58;;;;;;;6.25;4.13;;;6.90;99.90;;;;;;5012938;28;20646;-84
2020/12/18 06:05:06;;;;;;;6.45;4.10;;;6.90;99.90;;;;;;4983760;28;20201;-85
2020/12/18 06:07:58;;;;;;;4.75;3.90;;;6.90;99.90;;;;;;4989525;28;20257;-86
2020/12/18 06:10:27;;;;;;;7.10;4.80;;;6.90;99.90;;;;;;4999448;28;20582;-85
2020/12/18 06:13:16;;;;;;;4.05;3.50;;;7.00;99.90;;;;;;4996228;28;20211;-86
2020/12/18 06:16:01;;;;;;;7.00;4.00;;;7.00;99.90;;;;;;4996944;28;20531;-87
2020/12/18 06:18:46;;;;;;;4.50;3.60;;;7.00;99.90;;;;;;4996351;28;20642;-87
2020/12/18 06:21:21;;;;;;;6.00;3.90;;;7.00;99.90;;;;;;4981452;28;20190;-88
2020/12/18 06:23:54;;;;;;;8.55;4.20;;;7.00;99.90;;;;;;4980530;28;20229;-88
2020/12/18 06:26:57;;;;;;;4.55;3.20;;;7.00;99.90;;;;;;4947699;28;20237;-86
2020/12/18 06:29:41;;;;;;;8.18;3.80;;;7.00;99.90;;;;;;4977425;28;20316;-86
2020/12/18 06:32:28;;;;;;;8.63;3.75;;;7.00;99.90;;;;;;4996473;28;20675;-87
2020/12/18 06:35:32;;;;;;;8.55;4.63;;;7.00;99.90;;;;;;4996463;28;20217;-87
2020/12/18 06:38:39;;;;;;;9.18;3.40;;;7.00;99.90;;;;;;4957830;28;20554;-87
2020/12/18 06:41:33;;;;;;;4.95;4.32;;;7.00;99.90;;;;;;4975736;28;20195;-85
2020/12/18 06:44:50;;;;;;;7.63;3.55;;;7.10;99.90;;;;;;4985788;28;20198;-86
2020/12/18 06:47:31;;;;;;;10.40;4.07;;;7.10;99.90;;;;;;4944888;28;20251;-87
2020/12/18 06:50:33;;;;;;;7.95;4.03;;;7.10;99.90;;;;;;4941056;28;20246;-86
2020/12/18 06:53:20;;;;;;;10.30;4.20;;;7.10;99.90;;;;;;4943660;28;20278;-86
2020/12/18 06:56:26;;;;;;;9.27;4.47;;;7.00;99.90;;;;;;4956091;28;20203;-87
2020/12/18 06:59:33;;;;;;;8.60;3.90;;;7.00;99.90;;;;;;4948695;28;20195;-87
2020/12/18 07:02:34;;;;;;;6.93;4.70;;;7.00;99.90;;;;;;4955477;28;20305;-84
2020/12/18 07:05:02;;;;;;;8.73;4.90;;;7.00;99.90;;;;;;4938368;28;20208;-85
2020/12/18 07:07:28;;;;;;;8.65;4.15;;;7.00;99.90;;;;;;4953483;28;20195;-87
2020/12/18 07:09:54;;;;;;;12.10;4.23;;;7.00;99.90;;;;;;4938123;29;20218;-85
2020/12/18 07:12:21;;;;;;;7.35;4.15;;;7.00;99.90;;;;;;4952906;28;20535;-84
2020/12/18 07:14:49;;;;;;;5.88;4.47;;;7.00;99.90;;;;;;4937686;29;20206;-85
2020/12/18 07:17:21;;;;;;;6.07;4.53;;;7.00;99.90;;;;;;4951283;28;20190;-85
2020/12/18 07:19:47;;;;;;;11.77;4.05;;;7.00;99.90;;;;;;4987040;28;20218;-84
2020/12/18 07:22:21;;;;;;;9.48;4.40;;;7.00;99.90;;;;;;4988794;28;20198;-85
2020/12/18 07:24:49;;;;;;;5.25;3.70;;;7.00;99.90;;;;;;4959204;28;20211;-84
2020/12/18 07:27:15;;;;;;;5.35;3.97;;;7.00;99.90;;;;;;4985337;28;20183;-84
2020/12/18 07:29:44;;;;;;;5.38;3.95;;;7.00;99.90;;;;;;4986949;28;20230;-84
2020/12/18 07:32:12;;;;;;;6.10;4.50;;;7.00;99.90;;;;;;4978034;28;20206;-85
2020/12/18 07:34:41;;;;;;;6.45;4.13;;;7.00;99.90;;;;;;4995599;28;20602;-85
2020/12/18 07:37:17;;;;;;;8.70;4.50;;;7.00;99.90;;;;;;4962447;28;20197;-85
2020/12/18 07:39:43;;;;;;;11.35;4.30;;;7.00;99.90;;;;;;4978362;28;20194;-84
2020/12/18 07:42:09;;;;;;;12.65;4.20;;;7.00;99.90;;;;;;4978517;28;20252;-85
2020/12/18 07:44:36;;;;;;;8.23;4.20;;;7.00;99.90;;;;;;4977977;28;20646;-86
2020/12/18 07:47:09;;;;;;;10.02;4.38;;;7.10;99.90;;;;;;4995446;28;20206;-85
2020/12/18 07:49:35;;;;;;;8.70;4.45;;;7.10;99.90;;;;;;4978069;28;20226;-86
2020/12/18 07:52:11;;;;;;;5.60;4.28;;;7.20;99.90;;;;;;4995600;28;20230;-85
2020/12/18 07:54:37;;;;;;;7.85;4.55;;;7.10;99.90;;;;;;4995267;28;20218;-86
2020/12/18 07:57:08;;;;;;;6.70;4.10;;;7.10;99.90;;;;;;4994298;28;20233;-85
2020/12/18 07:59:34;;;;;;;8.88;4.32;;;7.10;99.90;;;;;;4978202;28;20800;-86
2020/12/18 08:02:05;;;;;;;10.02;6.15;;;7.00;99.90;;;;;;4977858;28;20193;-84
2020/12/18 08:04:31;;;;;;;8.50;4.45;;;7.10;99.90;;;;;;4994716;28;20203;-85
2020/12/18 08:06:58;;;;;;;7.82;4.05;;;7.10;99.90;;;;;;4995285;28;20210;-87
2020/12/18 08:09:27;;;;;;;8.15;4.00;;;7.10;99.90;;;;;;4994186;28;20219;-85
2020/12/18 08:11:56;;;;;;;5.57;4.28;;;7.20;99.90;;;;;;4978136;28;20587;-86
2020/12/18 08:14:24;;;;;;;10.35;4.10;;;7.20;99.90;;;;;;4995237;28;20198;-87
2020/12/18 08:16:50;;;;;;;6.80;4.05;;;7.20;99.90;;;;;;4968322;28;20194;-87
2020/12/18 08:19:16;;;;;;;8.63;3.27;;;7.30;99.90;;;;;;4991696;28;20198;-86
2020/12/18 08:21:47;;;;;;;6.03;4.40;;;7.40;99.90;;;;;;4977734;28;20442;-86
2020/12/18 08:24:25;;;;;;;4.97;3.83;;;7.30;99.90;;;;;;4980944;28;20799;-85
2020/12/18 08:26:55;;;;;;;4.35;3.33;;;7.30;99.90;;;;;;4970876;28;20190;-85
2020/12/18 08:29:23;;;;;;;6.43;4.78;;;7.40;99.90;;;;;;5001892;28;20617;-85
2020/12/18 08:31:56;;;;;;;8.73;4.40;;;7.40;99.90;;;;;;4993137;28;20867;-86
2020/12/18 08:34:27;;;;;;;6.90;4.20;;;7.40;99.90;;;;;;4993528;28;20296;-83
2020/12/18 08:36:57;;;;;;;7.65;4.78;;;7.40;99.90;;;;;;5009725;28;20190;-86
2020/12/18 08:39:29;;;;;;;8.82;4.20;;;7.50;99.90;;;;;;4985170;28;20193;-86
2020/12/18 08:41:58;;;;;;;7.50;4.40;;;7.50;99.90;;;;;;4963989;28;20642;-87
2020/12/18 08:44:29;;;;;;;10.00;4.50;;;7.50;99.90;;;;;;4982064;28;20220;-86
2020/12/18 08:46:58;;;;;;;9.63;5.22;;;7.60;99.90;;;;;;4960682;28;20273;-86
2020/12/18 08:49:30;;;;;;;6.53;4.30;;;7.70;99.90;;;;;;5004901;28;20699;-86
2020/12/18 08:52:02;;;;;;;7.78;4.95;;;7.70;99.90;;;;;;4994727;28;20221;-86
2020/12/18 08:54:28;;;;;;;8.25;4.40;;;7.80;99.90;;;;;;5001825;28;20651;-86
2020/12/18 08:57:22;;;;;;;5.68;4.10;;;7.80;99.90;;;;;;4995630;28;20430;-87
2020/12/18 09:00:22;;;;;;;14.43;4.47;;;7.80;99.90;;;;;;5001876;28;20193;-85
2020/12/18 09:02:48;;;;;;;6.70;4.80;;;7.90;99.90;;;;;;5006540;28;20171;-85
2020/12/18 09:05:25;;;;;;;9.23;4.60;;;7.90;99.90;;;;;;4997825;28;20449;-82
2020/12/18 09:08:08;;;;;;;5.90;3.90;;;7.90;99.90;;;;;;5005775;28;20543;-85
2020/12/18 09:10:40;;;;;;;8.57;4.60;;;7.80;99.90;;;;;;4999562;28;20194;-87
2020/12/18 09:13:18;;;;;;;6.45;4.20;;;7.90;99.90;;;;;;4975530;28;20196;-85
2020/12/18 09:16:11;;;;;;;6.90;4.25;;;7.90;99.90;;;;;;5006857;28;20224;-88
2020/12/18 09:18:46;;;;;;;10.32;4.18;;;7.90;99.90;;;;;;4998235;28;20183;-86
2020/12/18 09:21:17;;;;;;;6.13;4.88;;;8.00;99.90;;;;;;4998487;28;20190;-86
2020/12/18 09:23:48;;;;;;;6.13;4.60;;;7.90;99.90;;;;;;4965074;28;20552;-87
2020/12/18 09:26:28;;;;;;;7.60;4.82;;;8.00;99.90;;;;;;4997515;28;20702;-87
2020/12/18 09:28:57;;;;;;;7.70;4.97;;;8.10;99.90;;;;;;5001997;28;20245;-86
2020/12/18 09:31:27;;;;;;;10.15;4.75;;;8.10;99.90;;;;;;5003195;28;20190;-87
2020/12/18 09:33:53;;;;;;;5.80;4.50;;;8.10;99.90;;;;;;5005759;28;21053;-85
2020/12/18 09:36:24;;;;;;;5.53;4.50;;;8.10;99.90;;;;;;4997842;28;20801;-86
2020/12/18 09:38:54;;;;;;;9.20;4.70;;;8.10;99.90;;;;;;4988837;28;20500;-86
2020/12/18 09:41:23;;;;;;;7.60;4.88;;;8.10;99.90;;;;;;4987772;28;20222;-86
2020/12/18 09:43:50;;;;;;;6.10;4.90;;;8.20;99.90;;;;;;4998059;28;20236;-87
2020/12/18 09:46:18;;;;;;;6.90;4.53;;;8.20;99.90;;;;;;4964371;28;20225;-84
2020/12/18 09:48:48;;;;;;;6.47;5.13;;;8.20;99.90;;;;;;4996058;28;20217;-87
2020/12/18 09:51:15;;;;;;;7.18;5.00;;;8.20;99.90;;;;;;4997070;28;20195;-87
2020/12/18 09:53:42;;;;;;;9.90;4.70;;;8.20;99.90;;;;;;5013708;28;20201;-86
2020/12/18 09:56:15;;;;;;;5.32;4.80;;;8.30;99.90;;;;;;4997172;28;20195;-88
2020/12/18 09:58:41;;;;;;;6.78;4.68;;;8.40;99.90;;;;;;5006130;28;20359;-89
2020/12/18 10:01:15;;;;;;;7.22;4.45;;;8.40;99.90;;;;;;4988585;28;20286;-90
2020/12/18 10:03:44;;;;;;;5.53;4.18;;;8.40;99.90;;;;;;5006284;28;20264;-87
2020/12/18 10:06:12;;;;;;;6.28;4.40;;;8.50;99.90;;;;;;5017676;28;20182;-89
2020/12/18 10:09:05;;;;;;;6.72;5.60;;;8.50;99.90;;;;;;5017510;28;20210;-89
2020/12/18 10:11:33;;;;;;;6.38;5.10;;;8.50;99.90;;;;;;4993376;28;20328;-89
2020/12/18 10:14:02;;;;;;;7.13;4.40;;;8.50;99.90;;;;;;4997853;28;20186;-88
2020/12/18 10:16:31;;;;;;;8.00;4.67;;;8.50;99.90;;;;;;4997840;28;20463;-88
2020/12/18 10:18:57;;;;;;;6.33;4.50;;;8.50;99.90;;;;;;4980415;28;20592;-90
2020/12/18 10:21:34;;;;;;;8.83;5.50;;;8.50;99.90;;;;;;4999235;28;20448;-87
2020/12/18 10:24:03;;;;;;;7.47;5.00;;;8.50;99.90;;;;;;5005582;28;20441;-89
2020/12/18 10:26:29;;;;;;;6.60;5.00;;;8.60;99.90;;;;;;5003057;28;20268;-89
2020/12/18 10:28:55;;;;;;;8.47;4.80;;;8.60;99.90;;;;;;5000566;28;20618;-87
2020/12/18 10:31:58;;;;;;;11.25;5.18;;;8.70;99.90;;;;;;5017306;28;20455;-89
2020/12/18 10:34:25;;;;;;;8.75;6.30;;;8.80;99.90;;;;;;5010263;28;20204;-87
2020/12/18 10:36:55;;;;;;;7.47;5.30;;;8.80;99.90;;;;;;5016653;28;20197;-91
2020/12/18 10:39:26;;;;;;;10.88;5.05;;;8.90;99.90;;;;;;4983826;28;20457;-89
2020/12/18 10:41:54;;;;;;;10.23;5.67;;;8.90;99.90;;;;;;5017125;28;20193;-89
2020/12/18 10:44:24;;;;;;;8.53;5.10;;;9.00;99.90;;;;;;4999625;28;20535;-87
2020/12/18 10:46:50;;;;;;;6.67;4.83;;;9.00;99.90;;;;;;5016979;28;20440;-90
2020/12/18 10:49:22;;;;;;;6.50;4.50;;;9.10;99.90;;;;;;5015341;28;20483;-86
2020/12/18 10:51:49;;;;;;;8.80;4.93;;;9.10;99.90;;;;;;4997185;28;20444;-88
2020/12/18 10:54:15;;;;;;;9.50;5.10;;;9.20;99.90;;;;;;5014568;28;20441;-87
2020/12/18 10:56:47;;;;;;;5.30;4.67;;;9.30;99.90;;;;;;4998499;28;20460;-83
2020/12/18 10:59:24;;;;;;;5.97;4.77;;;9.30;99.90;;;;;;5015925;28;20957;-89
2020/12/18 11:01:55;;;;;;;5.43;4.90;;;9.20;99.90;;;;;;5015465;28;20463;-86
2020/12/18 11:04:58;;;;;;;8.30;4.83;;;9.30;99.90;;;;;;5015148;28;20451;-87
2020/12/18 11:08:12;;;;;;;5.17;4.33;;;9.30;99.90;;;;;;5007740;28;20487;-87
2020/12/18 11:10:38;;;;;;;11.05;4.68;;;9.40;99.90;;;;;;5016021;28;20465;-88
2020/12/18 11:13:07;;;;;;;9.23;4.50;;;9.50;99.90;;;;;;5015845;28;20202;-86
2020/12/18 11:15:33;;;;;;;7.03;5.43;;;9.50;99.90;;;;;;4998461;28;20447;-88
2020/12/18 11:18:01;;;;;;;5.23;4.70;;;9.50;99.90;;;;;;4995680;28;20510;-90
2020/12/18 11:20:28;;;;;;;8.33;4.50;;;9.60;99.90;;;;;;4998876;28;20762;-90
2020/12/18 11:22:59;;;;;;;4.67;4.27;;;9.60;99.90;;;;;;4988469;28;20413;-90
2020/12/18 11:25:30;;;;;;;6.50;4.20;;;9.70;99.90;;;;;;5015032;28;20445;-90
2020/12/18 11:27:58;;;;;;;8.53;4.97;;;9.80;99.90;;;;;;5012586;28;20937;-89
2020/12/18 11:30:23;;;;;;;7.23;5.23;;;9.80;99.90;;;;;;4982317;28;21115;-90
2020/12/18 11:32:51;;;;;;;4.97;4.57;;;9.80;99.90;;;;;;4988512;28;20433;-90
2020/12/18 11:35:17;;;;;;;5.90;4.90;;;9.80;99.90;;;;;;4996258;28;20430;-90
2020/12/18 11:37:46;;;;;;;6.23;4.60;;;9.80;99.90;;;;;;4988329;28;20449;-88
2020/12/18 11:40:12;;;;;;;6.47;5.13;;;9.90;99.90;;;;;;4993202;28;20462;-89
2020/12/18 11:42:38;;;;;;;12.87;5.30;;;9.90;99.90;;;;;;4991543;28;20422;-90
2020/12/18 11:45:04;;;;;;;6.50;5.80;;;10.00;99.90;;;;;;4988240;28;20466;-90
2020/12/18 11:47:30;;;;;;;7.77;5.07;;;10.00;99.90;;;;;;4990863;28;20426;-91
2020/12/18 11:49:56;;;;;;;7.37;3.70;;;10.10;99.90;;;;;;4985613;28;20500;-91
2020/12/18 11:52:22;;;;;;;6.67;4.70;;;10.10;99.90;;;;;;4983005;28;20926;-91
2020/12/18 11:54:48;;;;;;;6.07;4.17;;;10.10;99.90;;;;;;4992681;28;20453;-90
2020/12/18 11:57:16;;;;;;;4.93;4.30;;;10.10;99.90;;;;;;4995810;28;20524;-89
2020/12/18 11:59:42;;;;;;;5.10;4.60;;;10.10;99.90;;;;;;4989588;28;20528;-90
2020/12/18 12:02:08;;;;;;;8.40;4.87;;;10.10;99.90;;;;;;4963060;28;20489;-89
2020/12/18 12:04:34;;;;;;;8.50;4.60;;;10.10;99.90;;;;;;4968880;28;20438;-89
2020/12/18 12:07:03;;;;;;;8.30;4.73;;;10.10;99.90;;;;;;4994796;28;20433;-86
2020/12/18 12:09:33;;;;;;;6.13;4.97;;;10.10;99.90;;;;;;4994770;28;20457;-89
2020/12/18 12:11:59;;;;;;;6.13;4.10;;;10.20;99.90;;;;;;4994114;28;20429;-87
2020/12/18 12:14:28;;;;;;;5.00;4.50;;;10.20;99.90;;;;;;4990735;28;20469;-90
2020/12/18 12:16:54;;;;;;;6.03;4.77;;;10.30;99.90;;;;;;4968381;28;20430;-86
2020/12/18 12:19:20;;;;;;;4.67;4.27;;;10.30;99.90;;;;;;4995288;28;20430;-84
2020/12/18 12:21:48;;;;;;;7.10;5.40;;;10.30;99.90;;;;;;4987093;28;20520;-87
2020/12/18 12:24:14;;;;;;;5.07;4.57;;;10.30;99.90;;;;;;4989557;28;20553;-88
2020/12/18 12:26:42;;;;;;;6.87;4.70;;;10.20;99.90;;;;;;4978356;28;20438;-87
2020/12/18 12:29:08;;;;;;;4.50;4.10;;;10.20;99.90;;;;;;4998005;28;20504;-89
2020/12/18 12:31:34;;;;;;;8.83;4.20;;;10.20;99.90;;;;;;5001854;28;20509;-85
2020/12/18 12:34:08;;;;;;;4.97;4.00;;;10.20;99.90;;;;;;4978496;28;20492;-84
2020/12/18 12:36:36;;;;;;;6.93;5.37;;;10.20;99.90;;;;;;4994751;28;20426;-84
2020/12/18 12:39:02;;;;;;;5.47;4.30;;;10.20;99.90;;;;;;4994397;28;20492;-84
2020/12/18 12:41:29;;;;;;;4.47;4.07;;;10.20;99.90;;;;;;4990761;28;20449;-84
2020/12/18 12:43:54;;;;;;;5.43;4.40;;;10.20;99.90;;;;;;4990137;28;20476;-84
2020/12/18 12:46:26;;;;;;;7.30;3.90;;;10.30;99.90;;;;;;4984789;28;20478;-83
2020/12/18 12:48:54;;;;;;;5.03;4.20;;;10.20;99.90;;;;;;4979247;28;20469;-83
2020/12/18 12:51:22;;;;;;;4.10;3.67;;;10.20;99.90;;;;;;4993741;28;20909;-84
2020/12/18 12:53:48;;;;;;;4.50;4.10;;;10.20;99.90;;;;;;4998889;28;20429;-84
2020/12/18 12:56:16;;;;;;;6.50;3.73;;;10.30;99.90;;;;;;5004027;28;20512;-83
2020/12/18 12:58:42;;;;;;;6.40;4.63;;;10.30;99.90;;;;;;5002213;28;20449;-84
2020/12/18 13:01:11;;;;;;;4.60;3.97;;;10.40;99.90;;;;;;4993929;28;20428;-84
2020/12/18 13:04:04;;;;;;;6.57;4.63;;;10.40;99.90;;;;;;4994111;28;20495;-84
2020/12/18 13:06:38;;;;;;;7.47;3.73;;;10.40;99.90;;;;;;4993722;28;20934;-84
2020/12/18 13:09:07;;;;;;;4.53;4.10;;;10.40;99.90;;;;;;5002004;28;20500;-83
2020/12/18 13:11:37;;;;;;;4.47;3.90;;;10.40;99.90;;;;;;4977003;28;20437;-84
2020/12/18 13:14:04;;;;;;;4.63;3.20;;;10.40;99.90;;;;;;4984145;28;20492;-83
2020/12/18 13:16:30;;;;;;;4.80;3.03;;;10.50;99.90;;;;;;4987224;28;20445;-83
2020/12/18 13:18:56;;;;;;;5.17;3.67;;;10.50;99.90;;;;;;5010712;28;21088;-83
2020/12/18 13:21:30;;;;;;;7.43;4.03;;;10.50;99.90;;;;;;4980387;28;20466;-83
2020/12/18 13:23:58;;;;;;;5.03;3.80;;;10.50;99.90;;;;;;4999513;28;20484;-83
2020/12/18 13:26:27;;;;;;;3.77;3.23;;;10.60;99.90;;;;;;4989538;28;20917;-83